sensor_id;sensor_type;location;lat;lon;timestamp;P1;durP1;ratioP1;P2;durP2;ratioP2
19828;SDS011;10075;50.924;4.396;2023-05-07T00:01:07;11.73;;;4.38;;
19828;SDS011;10075;50.924;4.396;2023-05-07T00:03:36;8.60;;;3.67;;
19828;SDS011;10075;50.924;4.396;2023-05-07T00:06:03;7.00;;;3.95;;
19828;SDS011;10075;50.924;4.396;2023-05-07T00:08:30;8.10;;;3.67;;
19828;SDS011;10075;50.924;4.396;2023-05-07T00:10:57;8.90;;;3.97;;
19828;SDS011;10075;50.924;4.396;2023-05-07T00:13:24;10.18;;;4.55;;
19828;SDS011;10075;50.924;4.396;2023-05-07T00:15:51;9.07;;;4.60;;
19828;SDS011;10075;50.924;4.396;2023-05-07T00:18:18;8.35;;;3.78;;
19828;SDS011;10075;50.924;4.396;2023-05-07T00:20:49;9.65;;;4.30;;
19828;SDS011;10075;50.924;4.396;2023-05-07T00:23:15;10.00;;;5.18;;
19828;SDS011;10075;50.924;4.396;2023-05-07T00:25:42;8.60;;;4.50;;
19828;SDS011;10075;50.924;4.396;2023-05-07T00:28:09;7.25;;;4.50;;
19828;SDS011;10075;50.924;4.396;2023-05-07T00:30:36;9.90;;;4.57;;
19828;SDS011;10075;50.924;4.396;2023-05-07T00:33:03;6.95;;;4.10;;
19828;SDS011;10075;50.924;4.396;2023-05-07T00:35:30;9.50;;;4.65;;
19828;SDS011;10075;50.924;4.396;2023-05-07T00:37:59;10.52;;;4.65;;
19828;SDS011;10075;50.924;4.396;2023-05-07T00:40:26;10.40;;;5.10;;
19828;SDS011;10075;50.924;4.396;2023-05-07T00:42:53;9.13;;;4.20;;
19828;SDS011;10075;50.924;4.396;2023-05-07T00:45:23;6.93;;;3.97;;
19828;SDS011;10075;50.924;4.396;2023-05-07T00:47:53;8.65;;;4.40;;
19828;SDS011;10075;50.924;4.396;2023-05-07T00:50:21;7.82;;;5.07;;
19828;SDS011;10075;50.924;4.396;2023-05-07T00:52:48;9.25;;;4.97;;
19828;SDS011;10075;50.924;4.396;2023-05-07T00:55:17;10.10;;;4.57;;
19828;SDS011;10075;50.924;4.396;2023-05-07T00:57:45;8.18;;;4.72;;
19828;SDS011;10075;50.924;4.396;2023-05-07T01:00:12;7.93;;;4.10;;
19828;SDS011;10075;50.924;4.396;2023-05-07T01:02:39;9.23;;;4.72;;
19828;SDS011;10075;50.924;4.396;2023-05-07T01:05:07;8.82;;;4.35;;
19828;SDS011;10075;50.924;4.396;2023-05-07T01:07:38;9.75;;;4.40;;
19828;SDS011;10075;50.924;4.396;2023-05-07T01:10:07;11.57;;;4.60;;
19828;SDS011;10075;50.924;4.396;2023-05-07T01:12:37;6.43;;;4.50;;
19828;SDS011;10075;50.924;4.396;2023-05-07T01:15:05;8.65;;;4.72;;
19828;SDS011;10075;50.924;4.396;2023-05-07T01:17:34;9.23;;;4.50;;
19828;SDS011;10075;50.924;4.396;2023-05-07T01:20:01;7.40;;;4.55;;
19828;SDS011;10075;50.924;4.396;2023-05-07T01:22:31;11.90;;;5.00;;
19828;SDS011;10075;50.924;4.396;2023-05-07T01:24:59;8.20;;;4.68;;
19828;SDS011;10075;50.924;4.396;2023-05-07T01:27:26;9.93;;;4.75;;
19828;SDS011;10075;50.924;4.396;2023-05-07T01:29:53;10.82;;;4.50;;
19828;SDS011;10075;50.924;4.396;2023-05-07T01:32:23;6.80;;;4.00;;
19828;SDS011;10075;50.924;4.396;2023-05-07T01:34:55;10.27;;;4.57;;
19828;SDS011;10075;50.924;4.396;2023-05-07T01:37:23;8.35;;;4.50;;
19828;SDS011;10075;50.924;4.396;2023-05-07T01:39:53;8.63;;;4.70;;
19828;SDS011;10075;50.924;4.396;2023-05-07T01:42:20;9.77;;;4.40;;
19828;SDS011;10075;50.924;4.396;2023-05-07T01:44:48;6.75;;;4.22;;
19828;SDS011;10075;50.924;4.396;2023-05-07T01:47:15;9.32;;;4.90;;
19828;SDS011;10075;50.924;4.396;2023-05-07T01:49:43;13.60;;;4.78;;
19828;SDS011;10075;50.924;4.396;2023-05-07T01:52:10;8.65;;;4.78;;
19828;SDS011;10075;50.924;4.396;2023-05-07T01:54:37;7.80;;;4.25;;
19828;SDS011;10075;50.924;4.396;2023-05-07T01:57:06;9.32;;;3.78;;
19828;SDS011;10075;50.924;4.396;2023-05-07T01:59:33;9.30;;;4.55;;
19828;SDS011;10075;50.924;4.396;2023-05-07T02:02:00;10.68;;;4.75;;
19828;SDS011;10075;50.924;4.396;2023-05-07T02:04:27;11.18;;;4.43;;
19828;SDS011;10075;50.924;4.396;2023-05-07T02:06:54;9.70;;;4.50;;
19828;SDS011;10075;50.924;4.396;2023-05-07T02:09:21;9.18;;;4.90;;
19828;SDS011;10075;50.924;4.396;2023-05-07T02:11:48;8.40;;;5.22;;
19828;SDS011;10075;50.924;4.396;2023-05-07T02:14:17;7.55;;;4.47;;
19828;SDS011;10075;50.924;4.396;2023-05-07T02:16:45;9.13;;;4.88;;
19828;SDS011;10075;50.924;4.396;2023-05-07T02:19:12;10.60;;;5.22;;
19828;SDS011;10075;50.924;4.396;2023-05-07T02:21:39;9.18;;;5.05;;
19828;SDS011;10075;50.924;4.396;2023-05-07T02:24:06;8.32;;;5.20;;
19828;SDS011;10075;50.924;4.396;2023-05-07T02:26:33;10.02;;;5.30;;
19828;SDS011;10075;50.924;4.396;2023-05-07T02:29:00;9.68;;;5.50;;
19828;SDS011;10075;50.924;4.396;2023-05-07T02:31:28;13.27;;;5.32;;
19828;SDS011;10075;50.924;4.396;2023-05-07T02:33:55;8.32;;;5.20;;
19828;SDS011;10075;50.924;4.396;2023-05-07T02:36:22;10.98;;;4.75;;
19828;SDS011;10075;50.924;4.396;2023-05-07T02:38:49;9.75;;;5.30;;
19828;SDS011;10075;50.924;4.396;2023-05-07T02:41:16;14.13;;;6.00;;
19828;SDS011;10075;50.924;4.396;2023-05-07T02:43:43;12.07;;;5.22;;
19828;SDS011;10075;50.924;4.396;2023-05-07T02:46:10;12.20;;;6.00;;
19828;SDS011;10075;50.924;4.396;2023-05-07T02:48:38;11.68;;;5.25;;
19828;SDS011;10075;50.924;4.396;2023-05-07T02:51:05;11.18;;;5.50;;
19828;SDS011;10075;50.924;4.396;2023-05-07T02:53:32;12.55;;;5.35;;
19828;SDS011;10075;50.924;4.396;2023-05-07T02:56:00;11.38;;;6.03;;
19828;SDS011;10075;50.924;4.396;2023-05-07T02:58:27;12.40;;;5.82;;
19828;SDS011;10075;50.924;4.396;2023-05-07T03:00:54;11.82;;;5.47;;
19828;SDS011;10075;50.924;4.396;2023-05-07T03:03:21;8.43;;;5.60;;
19828;SDS011;10075;50.924;4.396;2023-05-07T03:05:50;8.38;;;5.43;;
19828;SDS011;10075;50.924;4.396;2023-05-07T03:08:17;10.10;;;4.57;;
19828;SDS011;10075;50.924;4.396;2023-05-07T03:10:44;9.43;;;5.40;;
19828;SDS011;10075;50.924;4.396;2023-05-07T03:13:11;10.05;;;4.85;;
19828;SDS011;10075;50.924;4.396;2023-05-07T03:15:38;9.52;;;4.72;;
19828;SDS011;10075;50.924;4.396;2023-05-07T03:18:05;7.75;;;5.38;;
19828;SDS011;10075;50.924;4.396;2023-05-07T03:20:32;7.82;;;5.03;;
19828;SDS011;10075;50.924;4.396;2023-05-07T03:23:00;11.32;;;5.18;;
19828;SDS011;10075;50.924;4.396;2023-05-07T03:25:27;11.68;;;5.82;;
19828;SDS011;10075;50.924;4.396;2023-05-07T03:27:55;12.35;;;5.40;;
19828;SDS011;10075;50.924;4.396;2023-05-07T03:30:22;9.60;;;5.35;;
19828;SDS011;10075;50.924;4.396;2023-05-07T03:32:49;8.60;;;5.50;;
19828;SDS011;10075;50.924;4.396;2023-05-07T03:35:16;10.45;;;6.40;;
19828;SDS011;10075;50.924;4.396;2023-05-07T03:37:43;11.05;;;6.57;;
19828;SDS011;10075;50.924;4.396;2023-05-07T03:40:12;9.13;;;6.93;;
19828;SDS011;10075;50.924;4.396;2023-05-07T03:42:39;11.35;;;8.10;;
19828;SDS011;10075;50.924;4.396;2023-05-07T03:45:06;10.70;;;7.60;;
19828;SDS011;10075;50.924;4.396;2023-05-07T03:47:34;10.68;;;7.35;;
19828;SDS011;10075;50.924;4.396;2023-05-07T03:50:01;10.77;;;7.38;;
19828;SDS011;10075;50.924;4.396;2023-05-07T03:52:28;12.13;;;7.47;;
19828;SDS011;10075;50.924;4.396;2023-05-07T03:54:55;11.50;;;7.68;;
19828;SDS011;10075;50.924;4.396;2023-05-07T03:57:23;12.05;;;7.70;;
19828;SDS011;10075;50.924;4.396;2023-05-07T03:59:50;10.35;;;8.00;;
19828;SDS011;10075;50.924;4.396;2023-05-07T04:02:17;9.35;;;7.50;;
19828;SDS011;10075;50.924;4.396;2023-05-07T04:04:44;8.48;;;7.35;;
19828;SDS011;10075;50.924;4.396;2023-05-07T04:07:11;10.68;;;7.53;;
19828;SDS011;10075;50.924;4.396;2023-05-07T04:09:38;12.82;;;7.38;;
19828;SDS011;10075;50.924;4.396;2023-05-07T04:12:05;13.52;;;7.53;;
19828;SDS011;10075;50.924;4.396;2023-05-07T04:14:33;10.88;;;6.88;;
19828;SDS011;10075;50.924;4.396;2023-05-07T04:17:00;13.80;;;7.10;;
19828;SDS011;10075;50.924;4.396;2023-05-07T04:19:27;11.43;;;7.80;;
19828;SDS011;10075;50.924;4.396;2023-05-07T04:21:54;11.77;;;7.85;;
19828;SDS011;10075;50.924;4.396;2023-05-07T04:24:21;14.45;;;7.93;;
19828;SDS011;10075;50.924;4.396;2023-05-07T04:26:48;13.10;;;7.35;;
19828;SDS011;10075;50.924;4.396;2023-05-07T04:29:16;10.52;;;8.07;;
19828;SDS011;10075;50.924;4.396;2023-05-07T04:31:44;13.38;;;7.82;;
19828;SDS011;10075;50.924;4.396;2023-05-07T04:34:11;11.90;;;7.82;;
19828;SDS011;10075;50.924;4.396;2023-05-07T04:36:39;11.73;;;7.45;;
19828;SDS011;10075;50.924;4.396;2023-05-07T04:39:06;11.10;;;7.57;;
19828;SDS011;10075;50.924;4.396;2023-05-07T04:41:33;8.70;;;7.03;;
19828;SDS011;10075;50.924;4.396;2023-05-07T04:44:01;11.52;;;7.72;;
19828;SDS011;10075;50.924;4.396;2023-05-07T04:46:29;17.20;;;8.90;;
19828;SDS011;10075;50.924;4.396;2023-05-07T04:48:58;14.25;;;8.23;;
19828;SDS011;10075;50.924;4.396;2023-05-07T04:51:25;15.60;;;8.93;;
19828;SDS011;10075;50.924;4.396;2023-05-07T04:53:53;12.60;;;7.97;;
19828;SDS011;10075;50.924;4.396;2023-05-07T04:56:20;15.75;;;9.32;;
19828;SDS011;10075;50.924;4.396;2023-05-07T04:58:49;12.35;;;8.82;;
19828;SDS011;10075;50.924;4.396;2023-05-07T05:01:16;13.20;;;8.60;;
19828;SDS011;10075;50.924;4.396;2023-05-07T05:03:43;12.55;;;8.25;;
19828;SDS011;10075;50.924;4.396;2023-05-07T05:06:12;13.52;;;8.32;;
19828;SDS011;10075;50.924;4.396;2023-05-07T05:08:39;11.55;;;8.65;;
19828;SDS011;10075;50.924;4.396;2023-05-07T05:11:06;11.73;;;8.13;;
19828;SDS011;10075;50.924;4.396;2023-05-07T05:13:33;11.27;;;8.02;;
19828;SDS011;10075;50.924;4.396;2023-05-07T05:15:59;10.52;;;7.97;;
19828;SDS011;10075;50.924;4.396;2023-05-07T05:18:26;10.73;;;7.97;;
19828;SDS011;10075;50.924;4.396;2023-05-07T05:20:53;9.60;;;7.15;;
19828;SDS011;10075;50.924;4.396;2023-05-07T05:23:22;12.13;;;7.82;;
19828;SDS011;10075;50.924;4.396;2023-05-07T05:25:49;10.70;;;8.55;;
19828;SDS011;10075;50.924;4.396;2023-05-07T05:28:16;11.63;;;8.75;;
19828;SDS011;10075;50.924;4.396;2023-05-07T05:30:43;14.25;;;8.65;;
19828;SDS011;10075;50.924;4.396;2023-05-07T05:33:10;11.95;;;8.63;;
19828;SDS011;10075;50.924;4.396;2023-05-07T05:35:37;13.63;;;9.23;;
19828;SDS011;10075;50.924;4.396;2023-05-07T05:38:03;15.23;;;8.80;;
19828;SDS011;10075;50.924;4.396;2023-05-07T05:40:32;12.15;;;8.98;;
19828;SDS011;10075;50.924;4.396;2023-05-07T05:42:59;13.23;;;8.75;;
19828;SDS011;10075;50.924;4.396;2023-05-07T05:45:26;13.07;;;9.45;;
19828;SDS011;10075;50.924;4.396;2023-05-07T05:47:53;13.63;;;9.82;;
19828;SDS011;10075;50.924;4.396;2023-05-07T05:50:22;14.68;;;8.98;;
19828;SDS011;10075;50.924;4.396;2023-05-07T05:52:49;12.23;;;9.45;;
19828;SDS011;10075;50.924;4.396;2023-05-07T05:55:16;13.73;;;8.75;;
19828;SDS011;10075;50.924;4.396;2023-05-07T05:57:45;15.65;;;9.40;;
19828;SDS011;10075;50.924;4.396;2023-05-07T06:00:12;11.40;;;9.27;;
19828;SDS011;10075;50.924;4.396;2023-05-07T06:02:41;18.77;;;10.07;;
19828;SDS011;10075;50.924;4.396;2023-05-07T06:05:08;13.32;;;9.82;;
19828;SDS011;10075;50.924;4.396;2023-05-07T06:07:35;15.45;;;10.35;;
19828;SDS011;10075;50.924;4.396;2023-05-07T06:10:02;14.75;;;11.82;;
19828;SDS011;10075;50.924;4.396;2023-05-07T06:12:30;16.13;;;11.60;;
19828;SDS011;10075;50.924;4.396;2023-05-07T06:14:59;14.18;;;11.13;;
19828;SDS011;10075;50.924;4.396;2023-05-07T06:17:26;11.73;;;10.40;;
19828;SDS011;10075;50.924;4.396;2023-05-07T06:19:53;15.60;;;11.65;;
19828;SDS011;10075;50.924;4.396;2023-05-07T06:22:20;13.90;;;10.18;;
19828;SDS011;10075;50.924;4.396;2023-05-07T06:24:47;14.13;;;9.18;;
19828;SDS011;10075;50.924;4.396;2023-05-07T06:27:14;13.70;;;8.50;;
19828;SDS011;10075;50.924;4.396;2023-05-07T06:29:41;14.80;;;8.27;;
19828;SDS011;10075;50.924;4.396;2023-05-07T06:32:09;11.10;;;6.60;;
19828;SDS011;10075;50.924;4.396;2023-05-07T06:34:37;12.48;;;6.00;;
19828;SDS011;10075;50.924;4.396;2023-05-07T06:37:05;11.68;;;5.15;;
19828;SDS011;10075;50.924;4.396;2023-05-07T06:39:33;11.75;;;5.18;;
19828;SDS011;10075;50.924;4.396;2023-05-07T06:42:00;8.98;;;5.07;;
19828;SDS011;10075;50.924;4.396;2023-05-07T06:44:27;12.80;;;5.45;;
19828;SDS011;10075;50.924;4.396;2023-05-07T06:46:54;11.02;;;4.82;;
19828;SDS011;10075;50.924;4.396;2023-05-07T06:49:22;10.13;;;4.45;;
19828;SDS011;10075;50.924;4.396;2023-05-07T06:51:49;11.40;;;5.20;;
19828;SDS011;10075;50.924;4.396;2023-05-07T06:54:16;12.10;;;5.00;;
19828;SDS011;10075;50.924;4.396;2023-05-07T06:56:43;14.57;;;5.63;;
19828;SDS011;10075;50.924;4.396;2023-05-07T06:59:10;13.00;;;5.55;;
19828;SDS011;10075;50.924;4.396;2023-05-07T07:01:37;13.70;;;5.60;;
19828;SDS011;10075;50.924;4.396;2023-05-07T07:04:04;14.35;;;5.78;;
19828;SDS011;10075;50.924;4.396;2023-05-07T07:06:33;10.68;;;4.82;;
19828;SDS011;10075;50.924;4.396;2023-05-07T07:08:59;12.32;;;5.18;;
19828;SDS011;10075;50.924;4.396;2023-05-07T07:11:26;12.30;;;5.13;;
19828;SDS011;10075;50.924;4.396;2023-05-07T07:13:53;10.75;;;5.28;;
19828;SDS011;10075;50.924;4.396;2023-05-07T07:16:21;11.77;;;5.28;;
19828;SDS011;10075;50.924;4.396;2023-05-07T07:18:48;11.68;;;5.05;;
19828;SDS011;10075;50.924;4.396;2023-05-07T07:21:15;7.97;;;4.90;;
19828;SDS011;10075;50.924;4.396;2023-05-07T07:23:44;10.02;;;4.47;;
19828;SDS011;10075;50.924;4.396;2023-05-07T07:26:11;10.10;;;4.78;;
19828;SDS011;10075;50.924;4.396;2023-05-07T07:28:42;10.50;;;4.55;;
19828;SDS011;10075;50.924;4.396;2023-05-07T07:31:09;10.95;;;5.07;;
19828;SDS011;10075;50.924;4.396;2023-05-07T07:33:37;11.48;;;4.38;;
19828;SDS011;10075;50.924;4.396;2023-05-07T07:36:04;8.95;;;4.53;;
19828;SDS011;10075;50.924;4.396;2023-05-07T07:38:32;9.60;;;4.22;;
19828;SDS011;10075;50.924;4.396;2023-05-07T07:41:01;11.00;;;4.80;;
19828;SDS011;10075;50.924;4.396;2023-05-07T07:43:28;9.00;;;4.60;;
19828;SDS011;10075;50.924;4.396;2023-05-07T07:45:55;9.98;;;4.78;;
19828;SDS011;10075;50.924;4.396;2023-05-07T07:48:22;12.38;;;5.38;;
19828;SDS011;10075;50.924;4.396;2023-05-07T07:50:49;8.80;;;4.82;;
19828;SDS011;10075;50.924;4.396;2023-05-07T07:53:16;10.57;;;5.03;;
19828;SDS011;10075;50.924;4.396;2023-05-07T07:55:44;10.93;;;4.80;;
19828;SDS011;10075;50.924;4.396;2023-05-07T07:58:12;13.27;;;4.78;;
19828;SDS011;10075;50.924;4.396;2023-05-07T08:00:39;9.27;;;4.60;;
19828;SDS011;10075;50.924;4.396;2023-05-07T08:03:08;8.15;;;4.55;;
19828;SDS011;10075;50.924;4.396;2023-05-07T08:05:36;9.25;;;4.60;;
19828;SDS011;10075;50.924;4.396;2023-05-07T08:08:03;11.55;;;4.38;;
19828;SDS011;10075;50.924;4.396;2023-05-07T08:10:31;6.68;;;4.13;;
19828;SDS011;10075;50.924;4.396;2023-05-07T08:13:00;9.35;;;4.47;;
19828;SDS011;10075;50.924;4.396;2023-05-07T08:15:30;10.65;;;3.90;;
19828;SDS011;10075;50.924;4.396;2023-05-07T08:17:57;10.70;;;4.60;;
19828;SDS011;10075;50.924;4.396;2023-05-07T08:20:25;9.95;;;4.68;;
19828;SDS011;10075;50.924;4.396;2023-05-07T08:22:52;9.05;;;4.35;;
19828;SDS011;10075;50.924;4.396;2023-05-07T08:25:19;10.60;;;4.35;;
19828;SDS011;10075;50.924;4.396;2023-05-07T08:27:46;9.80;;;4.60;;
19828;SDS011;10075;50.924;4.396;2023-05-07T08:30:13;8.65;;;4.15;;
19828;SDS011;10075;50.924;4.396;2023-05-07T08:32:42;9.57;;;4.15;;
19828;SDS011;10075;50.924;4.396;2023-05-07T08:35:09;8.07;;;3.72;;
19828;SDS011;10075;50.924;4.396;2023-05-07T08:37:36;9.50;;;3.95;;
19828;SDS011;10075;50.924;4.396;2023-05-07T08:40:04;10.65;;;4.10;;
19828;SDS011;10075;50.924;4.396;2023-05-07T08:42:32;8.88;;;3.65;;
19828;SDS011;10075;50.924;4.396;2023-05-07T08:45:02;8.75;;;3.70;;
19828;SDS011;10075;50.924;4.396;2023-05-07T08:47:38;10.02;;;3.72;;
19828;SDS011;10075;50.924;4.396;2023-05-07T08:50:11;7.07;;;3.75;;
19828;SDS011;10075;50.924;4.396;2023-05-07T08:52:38;8.82;;;4.32;;
19828;SDS011;10075;50.924;4.396;2023-05-07T08:55:07;8.60;;;3.47;;
19828;SDS011;10075;50.924;4.396;2023-05-07T08:57:36;6.15;;;2.90;;
19828;SDS011;10075;50.924;4.396;2023-05-07T09:00:04;7.00;;;3.17;;
19828;SDS011;10075;50.924;4.396;2023-05-07T09:02:32;9.93;;;3.17;;
19828;SDS011;10075;50.924;4.396;2023-05-07T09:04:59;6.50;;;2.70;;
19828;SDS011;10075;50.924;4.396;2023-05-07T09:07:27;7.90;;;2.78;;
19828;SDS011;10075;50.924;4.396;2023-05-07T09:09:56;6.57;;;3.05;;
19828;SDS011;10075;50.924;4.396;2023-05-07T09:12:23;7.43;;;2.50;;
19828;SDS011;10075;50.924;4.396;2023-05-07T09:14:50;7.00;;;2.65;;
19828;SDS011;10075;50.924;4.396;2023-05-07T09:17:17;6.78;;;2.90;;
19828;SDS011;10075;50.924;4.396;2023-05-07T09:19:45;6.47;;;2.70;;
19828;SDS011;10075;50.924;4.396;2023-05-07T09:22:12;8.48;;;2.95;;
19828;SDS011;10075;50.924;4.396;2023-05-07T09:24:41;6.32;;;2.72;;
19828;SDS011;10075;50.924;4.396;2023-05-07T09:27:14;7.60;;;3.05;;
19828;SDS011;10075;50.924;4.396;2023-05-07T09:29:41;7.05;;;3.00;;
19828;SDS011;10075;50.924;4.396;2023-05-07T09:32:09;6.15;;;3.60;;
19828;SDS011;10075;50.924;4.396;2023-05-07T09:34:36;7.80;;;3.97;;
19828;SDS011;10075;50.924;4.396;2023-05-07T09:37:04;8.35;;;3.00;;
19828;SDS011;10075;50.924;4.396;2023-05-07T09:39:38;9.82;;;3.38;;
19828;SDS011;10075;50.924;4.396;2023-05-07T09:42:07;7.57;;;3.10;;
19828;SDS011;10075;50.924;4.396;2023-05-07T09:44:35;6.13;;;2.92;;
19828;SDS011;10075;50.924;4.396;2023-05-07T09:47:04;10.45;;;2.75;;
19828;SDS011;10075;50.924;4.396;2023-05-07T09:49:33;7.10;;;3.35;;
19828;SDS011;10075;50.924;4.396;2023-05-07T09:52:01;8.13;;;3.78;;
19828;SDS011;10075;50.924;4.396;2023-05-07T09:54:31;9.40;;;3.33;;
19828;SDS011;10075;50.924;4.396;2023-05-07T09:57:00;6.38;;;3.00;;
19828;SDS011;10075;50.924;4.396;2023-05-07T09:59:28;7.70;;;3.15;;
19828;SDS011;10075;50.924;4.396;2023-05-07T10:01:57;7.97;;;3.72;;
19828;SDS011;10075;50.924;4.396;2023-05-07T10:04:25;5.88;;;2.58;;
19828;SDS011;10075;50.924;4.396;2023-05-07T10:06:52;8.88;;;3.60;;
19828;SDS011;10075;50.924;4.396;2023-05-07T10:09:20;5.15;;;3.10;;
19828;SDS011;10075;50.924;4.396;2023-05-07T10:11:49;8.93;;;3.28;;
19828;SDS011;10075;50.924;4.396;2023-05-07T10:14:17;7.20;;;3.00;;
19828;SDS011;10075;50.924;4.396;2023-05-07T10:16:47;6.97;;;3.60;;
19828;SDS011;10075;50.924;4.396;2023-05-07T10:19:14;7.55;;;3.22;;
19828;SDS011;10075;50.924;4.396;2023-05-07T10:21:44;9.13;;;3.55;;
19828;SDS011;10075;50.924;4.396;2023-05-07T10:24:16;9.27;;;4.40;;
19828;SDS011;10075;50.924;4.396;2023-05-07T10:26:47;6.53;;;3.60;;
19828;SDS011;10075;50.924;4.396;2023-05-07T10:29:21;8.40;;;4.10;;
19828;SDS011;10075;50.924;4.396;2023-05-07T10:31:58;10.85;;;4.70;;
19828;SDS011;10075;50.924;4.396;2023-05-07T10:34:34;7.68;;;3.78;;
19828;SDS011;10075;50.924;4.396;2023-05-07T10:37:04;8.82;;;4.80;;
19828;SDS011;10075;50.924;4.396;2023-05-07T10:39:32;7.13;;;3.75;;
19828;SDS011;10075;50.924;4.396;2023-05-07T10:42:07;9.90;;;4.22;;
19828;SDS011;10075;50.924;4.396;2023-05-07T10:44:36;7.72;;;4.25;;
19828;SDS011;10075;50.924;4.396;2023-05-07T10:47:06;8.85;;;4.22;;
19828;SDS011;10075;50.924;4.396;2023-05-07T10:49:35;7.05;;;4.93;;
19828;SDS011;10075;50.924;4.396;2023-05-07T10:52:13;5.82;;;4.18;;
19828;SDS011;10075;50.924;4.396;2023-05-07T10:54:42;10.63;;;4.80;;
19828;SDS011;10075;50.924;4.396;2023-05-07T11:00:21;9.52;;;4.53;;
19828;SDS011;10075;50.924;4.396;2023-05-07T11:03:10;11.70;;;5.70;;
19828;SDS011;10075;50.924;4.396;2023-05-07T11:05:40;8.75;;;5.13;;
19828;SDS011;10075;50.924;4.396;2023-05-07T11:08:08;13.10;;;8.25;;
19828;SDS011;10075;50.924;4.396;2023-05-07T11:10:48;10.75;;;5.43;;
19828;SDS011;10075;50.924;4.396;2023-05-07T11:13:17;9.55;;;4.65;;
19828;SDS011;10075;50.924;4.396;2023-05-07T11:15:46;6.70;;;4.20;;
19828;SDS011;10075;50.924;4.396;2023-05-07T11:18:15;9.25;;;4.63;;
19828;SDS011;10075;50.924;4.396;2023-05-07T11:20:46;5.68;;;3.97;;
19828;SDS011;10075;50.924;4.396;2023-05-07T11:26:42;7.13;;;4.07;;
19828;SDS011;10075;50.924;4.396;2023-05-07T11:29:14;9.15;;;4.25;;
19828;SDS011;10075;50.924;4.396;2023-05-07T11:31:44;7.78;;;4.38;;
19828;SDS011;10075;50.924;4.396;2023-05-07T11:34:20;6.78;;;4.30;;
19828;SDS011;10075;50.924;4.396;2023-05-07T11:36:48;7.10;;;4.15;;
19828;SDS011;10075;50.924;4.396;2023-05-07T11:39:25;7.35;;;4.18;;
19828;SDS011;10075;50.924;4.396;2023-05-07T11:41:53;7.53;;;4.90;;
19828;SDS011;10075;50.924;4.396;2023-05-07T11:44:21;7.93;;;4.40;;
19828;SDS011;10075;50.924;4.396;2023-05-07T11:46:49;6.97;;;4.03;;
19828;SDS011;10075;50.924;4.396;2023-05-07T11:49:16;7.93;;;4.40;;
19828;SDS011;10075;50.924;4.396;2023-05-07T11:51:44;7.22;;;4.80;;
19828;SDS011;10075;50.924;4.396;2023-05-07T11:54:11;7.10;;;4.70;;
19828;SDS011;10075;50.924;4.396;2023-05-07T11:56:43;8.10;;;4.35;;
19828;SDS011;10075;50.924;4.396;2023-05-07T11:59:12;8.57;;;4.70;;
19828;SDS011;10075;50.924;4.396;2023-05-07T12:01:47;6.43;;;4.18;;
19828;SDS011;10075;50.924;4.396;2023-05-07T12:04:19;11.02;;;5.15;;
19828;SDS011;10075;50.924;4.396;2023-05-07T12:06:46;8.50;;;5.28;;
19828;SDS011;10075;50.924;4.396;2023-05-07T12:09:15;6.68;;;3.90;;
19828;SDS011;10075;50.924;4.396;2023-05-07T12:11:45;6.60;;;3.10;;
19828;SDS011;10075;50.924;4.396;2023-05-07T12:14:12;5.25;;;3.10;;
19828;SDS011;10075;50.924;4.396;2023-05-07T12:16:40;7.95;;;3.45;;
19828;SDS011;10075;50.924;4.396;2023-05-07T12:19:09;4.88;;;3.20;;
19828;SDS011;10075;50.924;4.396;2023-05-07T12:21:38;7.07;;;3.00;;
19828;SDS011;10075;50.924;4.396;2023-05-07T12:24:05;9.65;;;4.88;;
19828;SDS011;10075;50.924;4.396;2023-05-07T12:26:36;9.63;;;5.40;;
19828;SDS011;10075;50.924;4.396;2023-05-07T12:29:04;11.13;;;5.85;;
19828;SDS011;10075;50.924;4.396;2023-05-07T12:31:31;6.22;;;3.25;;
19828;SDS011;10075;50.924;4.396;2023-05-07T12:33:58;7.28;;;3.83;;
19828;SDS011;10075;50.924;4.396;2023-05-07T12:36:26;9.43;;;4.50;;
19828;SDS011;10075;50.924;4.396;2023-05-07T12:39:03;10.13;;;4.88;;
19828;SDS011;10075;50.924;4.396;2023-05-07T12:41:34;9.45;;;5.60;;
19828;SDS011;10075;50.924;4.396;2023-05-07T12:44:03;11.90;;;7.13;;
19828;SDS011;10075;50.924;4.396;2023-05-07T12:46:31;10.20;;;6.40;;
19828;SDS011;10075;50.924;4.396;2023-05-07T12:48:58;5.63;;;3.58;;
19828;SDS011;10075;50.924;4.396;2023-05-07T12:51:28;7.07;;;3.63;;
19828;SDS011;10075;50.924;4.396;2023-05-07T12:53:56;5.15;;;2.92;;
19828;SDS011;10075;50.924;4.396;2023-05-07T12:56:23;5.40;;;2.60;;
19828;SDS011;10075;50.924;4.396;2023-05-07T12:58:50;4.22;;;2.28;;
19828;SDS011;10075;50.924;4.396;2023-05-07T13:01:18;4.85;;;2.55;;
19828;SDS011;10075;50.924;4.396;2023-05-07T13:03:47;4.75;;;2.55;;
19828;SDS011;10075;50.924;4.396;2023-05-07T13:06:15;4.45;;;2.45;;
19828;SDS011;10075;50.924;4.396;2023-05-07T13:08:43;5.88;;;2.70;;
19828;SDS011;10075;50.924;4.396;2023-05-07T13:11:11;3.80;;;2.80;;
19828;SDS011;10075;50.924;4.396;2023-05-07T13:13:39;5.57;;;2.50;;
19828;SDS011;10075;50.924;4.396;2023-05-07T13:16:07;3.72;;;2.22;;
19828;SDS011;10075;50.924;4.396;2023-05-07T13:18:35;5.97;;;2.33;;
19828;SDS011;10075;50.924;4.396;2023-05-07T13:21:04;3.85;;;2.63;;
19828;SDS011;10075;50.924;4.396;2023-05-07T13:23:31;7.50;;;2.88;;
19828;SDS011;10075;50.924;4.396;2023-05-07T13:25:59;4.45;;;2.72;;
19828;SDS011;10075;50.924;4.396;2023-05-07T13:28:26;4.50;;;2.70;;
19828;SDS011;10075;50.924;4.396;2023-05-07T13:30:53;10.02;;;3.50;;
19828;SDS011;10075;50.924;4.396;2023-05-07T13:33:20;4.53;;;3.10;;
19828;SDS011;10075;50.924;4.396;2023-05-07T13:35:49;4.90;;;3.30;;
19828;SDS011;10075;50.924;4.396;2023-05-07T13:38:16;5.25;;;3.20;;
19828;SDS011;10075;50.924;4.396;2023-05-07T13:40:43;6.40;;;3.13;;
19828;SDS011;10075;50.924;4.396;2023-05-07T13:43:11;4.15;;;2.90;;
19828;SDS011;10075;50.924;4.396;2023-05-07T13:45:39;3.70;;;3.00;;
19828;SDS011;10075;50.924;4.396;2023-05-07T13:48:06;4.55;;;2.88;;
19828;SDS011;10075;50.924;4.396;2023-05-07T13:50:33;3.83;;;2.60;;
19828;SDS011;10075;50.924;4.396;2023-05-07T13:53:00;3.53;;;2.83;;
19828;SDS011;10075;50.924;4.396;2023-05-07T13:55:27;4.93;;;2.90;;
19828;SDS011;10075;50.924;4.396;2023-05-07T13:57:56;5.28;;;2.97;;
19828;SDS011;10075;50.924;4.396;2023-05-07T14:00:25;6.03;;;3.83;;
19828;SDS011;10075;50.924;4.396;2023-05-07T14:02:53;4.25;;;3.42;;
19828;SDS011;10075;50.924;4.396;2023-05-07T14:05:20;4.70;;;3.58;;
19828;SDS011;10075;50.924;4.396;2023-05-07T14:07:48;4.30;;;3.90;;
19828;SDS011;10075;50.924;4.396;2023-05-07T14:10:16;5.60;;;4.15;;
19828;SDS011;10075;50.924;4.396;2023-05-07T14:12:44;6.57;;;4.82;;
19828;SDS011;10075;50.924;4.396;2023-05-07T14:15:11;8.35;;;4.78;;
19828;SDS011;10075;50.924;4.396;2023-05-07T14:17:40;6.45;;;5.07;;
19828;SDS011;10075;50.924;4.396;2023-05-07T14:20:07;6.10;;;4.90;;
19828;SDS011;10075;50.924;4.396;2023-05-07T14:22:35;6.78;;;5.43;;
19828;SDS011;10075;50.924;4.396;2023-05-07T14:25:02;7.28;;;6.03;;
19828;SDS011;10075;50.924;4.396;2023-05-07T14:27:30;7.82;;;6.53;;
19828;SDS011;10075;50.924;4.396;2023-05-07T14:29:57;7.13;;;6.28;;
19828;SDS011;10075;50.924;4.396;2023-05-07T14:32:24;4.97;;;4.38;;
19828;SDS011;10075;50.924;4.396;2023-05-07T14:34:52;7.07;;;5.40;;
19828;SDS011;10075;50.924;4.396;2023-05-07T14:37:19;6.95;;;5.25;;
19828;SDS011;10075;50.924;4.396;2023-05-07T14:39:46;6.43;;;4.78;;
19828;SDS011;10075;50.924;4.396;2023-05-07T14:42:13;6.50;;;5.75;;
19828;SDS011;10075;50.924;4.396;2023-05-07T14:44:40;6.00;;;5.30;;
19828;SDS011;10075;50.924;4.396;2023-05-07T14:47:08;5.95;;;5.35;;
19828;SDS011;10075;50.924;4.396;2023-05-07T14:49:35;6.03;;;5.43;;
19828;SDS011;10075;50.924;4.396;2023-05-07T14:52:03;5.50;;;5.00;;
19828;SDS011;10075;50.924;4.396;2023-05-07T14:54:33;5.78;;;5.18;;